Terminal Aerodrome Forecast
Issued by NWS Sioux Falls, SD

Home | Current Version | Previous Version | Text Only | Print | Product List | Glossary Off
Versions: 1 2 3 4 5 6 7 8 9 10 11 12 13 14 15 16 17 18 19 20 21 22 23 24 25

000
FTUS43 KFSD 211720
TAFFSD
TAF
KFSD 211720Z 2118/2218 18004KT P6SM VCSH OVC010
      TEMPO 2118/2119 BKN008
     FM212100 18004KT P6SM BKN028
     FM212200 18004KT P6SM BKN035
     FM220200 14004KT P6SM SCT250
     FM220900 VRB03KT 3SM BR SCT045
     FM221300 13005KT P6SM SCT045=

USA.gov is the U.S. government's official web portal to all federal, state and local government web resources and services.